createdAt,value
2022-09-12T00:01:16.408Z,95586.19
2022-09-12T00:03:43.640Z,95589.94
2022-09-12T00:06:22.351Z,95590.22
2022-09-12T00:08:50.502Z,95585.16
2022-09-12T00:11:18.683Z,95595.28
2022-09-12T00:13:46.360Z,95587.88
2022-09-12T00:16:19.151Z,95602.97
2022-09-12T00:18:47.256Z,95593.41
2022-09-12T00:21:17.926Z,95583.78
2022-09-12T00:23:46.038Z,95592.53
2022-09-12T00:26:13.737Z,95594.34
2022-09-12T00:28:42.120Z,95596.16
2022-09-12T00:31:12.092Z,95586.59
2022-09-12T00:33:39.622Z,95588.94
2022-09-12T00:36:09.082Z,95588.28
2022-09-12T00:38:37.821Z,95592.53
2022-09-12T00:41:05.100Z,95584.28
2022-09-12T00:43:39.017Z,95579.22
2022-09-12T00:46:17.835Z,95577.34
2022-09-12T00:48:52.312Z,95581.00
2022-09-12T00:51:20.661Z,95573.59
2022-09-12T00:53:53.831Z,95577.25
2022-09-12T00:56:24.210Z,95567.88
2022-09-12T00:58:58.191Z,95569.72
2022-09-12T01:01:29.218Z,95569.16
2022-09-12T01:03:59.391Z,95560.63
2022-09-12T01:06:30.431Z,95564.03
2022-09-12T01:09:00.731Z,95553.19
2022-09-12T01:11:29.111Z,95555.47
2022-09-12T01:13:56.670Z,95561.56
2022-09-12T01:16:23.874Z,95556.84
2022-09-12T01:19:05.671Z,95560.00
2022-09-12T01:21:47.490Z,95559.47
2022-09-12T01:24:42.691Z,95566.16
2022-09-12T01:27:33.973Z,95559.28
2022-09-12T01:30:33.290Z,95554.56
2022-09-12T01:33:37.412Z,95550.59
2022-09-12T01:36:29.692Z,95549.56
2022-09-12T01:39:02.313Z,95552.81
2022-09-12T01:41:42.211Z,95552.22
2022-09-12T01:44:20.551Z,95545.91
2022-09-12T01:46:55.112Z,95550.09
2022-09-12T01:49:32.232Z,95544.19
2022-09-12T01:52:09.651Z,95544.19
2022-09-12T01:54:43.983Z,95542.34
2022-09-12T01:57:18.710Z,95535.72
2022-09-12T01:59:51.270Z,95543.66
2022-09-12T02:02:26.416Z,95534.78
2022-09-12T02:05:03.091Z,95537.72
2022-09-12T02:07:37.313Z,95537.47
2022-09-12T02:10:12.555Z,95537.72
2022-09-12T02:12:48.992Z,95540.91
2022-09-12T02:15:24.151Z,95543.03
2022-09-12T02:17:57.672Z,95543.25
2022-09-12T02:20:47.500Z,95540.03
2022-09-12T02:23:20.870Z,95540.84
2022-09-12T02:25:52.552Z,95533.91
2022-09-12T02:28:25.251Z,95539.75
2022-09-12T02:31:01.668Z,95532.31
2022-09-12T02:33:39.149Z,95535.44
2022-09-12T02:36:17.590Z,95533.84
2022-09-12T02:38:48.151Z,95525.84
2022-09-12T02:41:19.673Z,95525.31
2022-09-12T02:43:48.871Z,95528.50
2022-09-12T02:46:22.630Z,95532.19
2022-09-12T02:48:49.733Z,95521.34
2022-09-12T02:51:23.382Z,95530.09
2022-09-12T02:53:52.310Z,95532.03
2022-09-12T02:56:26.210Z,95534.94
2022-09-12T02:58:54.249Z,95535.16
2022-09-12T03:01:41.150Z,95535.94
2022-09-12T03:04:28.789Z,95536.50
2022-09-12T03:07:13.118Z,95532.78
2022-09-12T03:09:49.970Z,95534.94
2022-09-12T03:12:36.693Z,95529.84
2022-09-12T03:15:20.851Z,95526.66
2022-09-12T03:18:05.090Z,95526.88
2022-09-12T03:20:48.329Z,95527.41
2022-09-12T03:23:30.869Z,95531.16
2022-09-12T03:26:06.150Z,95521.28
2022-09-12T03:28:37.532Z,95525.59
2022-09-12T03:31:13.813Z,95521.25
2022-09-12T03:33:40.894Z,95521.28
2022-09-12T03:36:16.411Z,95522.63
2022-09-12T03:38:46.083Z,95518.09
2022-09-12T03:41:13.271Z,95521.50
2022-09-12T03:43:40.693Z,95527.66
2022-09-12T03:46:08.111Z,95519.03
2022-09-12T03:48:35.318Z,95521.44
2022-09-12T03:51:03.591Z,95525.13
2022-09-12T03:53:31.533Z,95527.78
2022-09-12T03:56:00.691Z,95521.94
2022-09-12T03:58:31.913Z,95526.47
2022-09-12T04:00:59.050Z,95515.28
2022-09-12T04:03:26.212Z,95523.47
2022-09-12T04:05:53.272Z,95522.16
2022-09-12T04:08:20.371Z,95517.59
2022-09-12T04:10:47.432Z,95522.91
2022-09-12T04:13:16.011Z,95521.25
2022-09-12T04:15:43.251Z,95518.03
2022-09-12T04:18:10.311Z,95520.13
2022-09-12T04:20:37.370Z,95518.78
2022-09-12T04:23:04.393Z,95528.28
2022-09-12T04:25:31.530Z,95520.06
2022-09-12T04:27:58.751Z,95520.25
2022-09-12T04:30:27.314Z,95519.41
2022-09-12T04:32:54.472Z,95526.13
2022-09-12T04:35:21.511Z,95527.09
2022-09-12T04:37:48.612Z,95528.19
2022-09-12T04:40:15.791Z,95532.19
2022-09-12T04:42:42.893Z,95528.19
2022-09-12T04:45:11.050Z,95534.31
2022-09-12T04:47:40.492Z,95527.91
2022-09-12T04:50:08.892Z,95526.56
2022-09-12T04:52:35.972Z,95531.09
2022-09-12T04:55:03.070Z,95533.97
2022-09-12T04:57:30.173Z,95531.41
2022-09-12T04:59:57.792Z,95534.53
2022-09-12T05:02:24.977Z,95537.75
2022-09-12T05:04:53.571Z,95531.13
2022-09-12T05:07:20.672Z,95529.56
2022-09-12T05:09:47.811Z,95521.47
2022-09-12T05:12:14.890Z,95516.19
2022-09-12T05:14:41.983Z,95524.97
2022-09-12T05:17:09.152Z,95523.69
2022-09-12T05:19:36.212Z,95527.00
2022-09-12T05:22:04.930Z,95525.63
2022-09-12T05:24:32.150Z,95527.47
2022-09-12T05:26:59.250Z,95532.59
2022-09-12T05:29:26.350Z,95531.78
2022-09-12T05:31:53.471Z,95533.41
2022-09-12T05:34:21.269Z,95540.56
2022-09-12T05:36:49.012Z,95539.44
2022-09-12T05:39:17.713Z,95543.41
2022-09-12T05:41:44.731Z,95545.50
2022-09-12T05:44:13.592Z,95552.88
2022-09-12T05:46:43.064Z,95550.34
2022-09-12T05:49:12.666Z,95551.91
2022-09-12T05:51:42.151Z,95553.88
2022-09-12T05:54:12.791Z,95547.94
2022-09-12T05:56:43.111Z,95545.75
2022-09-12T05:59:13.532Z,95547.88
2022-09-12T06:01:41.642Z,95547.09
2022-09-12T06:04:09.392Z,95561.22
2022-09-12T06:06:40.012Z,95560.84
2022-09-12T06:09:07.715Z,95557.97
2022-09-12T06:11:37.256Z,95558.75
2022-09-12T06:14:05.753Z,95560.63
2022-09-12T06:16:34.841Z,95559.84
2022-09-12T06:19:04.231Z,95559.69
2022-09-12T06:21:31.381Z,95561.97
2022-09-12T06:23:59.310Z,95561.59
2022-09-12T06:26:28.253Z,95556.69
2022-09-12T06:28:57.693Z,95555.50
2022-09-12T06:31:28.213Z,95552.13
2022-09-12T06:33:56.792Z,95549.28
2022-09-12T06:36:26.174Z,95549.03
2022-09-12T06:38:58.152Z,95553.53
2022-09-12T06:41:26.053Z,95549.25
2022-09-12T06:43:54.435Z,95554.06
2022-09-12T06:46:22.123Z,95551.34
2022-09-12T06:48:51.172Z,95554.78
2022-09-12T06:51:19.692Z,95559.47
2022-09-12T06:53:48.570Z,95554.94
2022-09-12T06:56:17.331Z,95553.66
2022-09-12T06:58:44.576Z,95555.72
2022-09-12T07:01:13.975Z,95554.16
2022-09-12T07:03:43.073Z,95559.38
2022-09-12T07:06:15.492Z,95560.97
2022-09-12T07:08:42.958Z,95565.47
2022-09-12T07:11:12.711Z,95568.72
2022-09-12T07:13:40.632Z,95565.25
2022-09-12T07:16:08.295Z,95563.00
2022-09-12T07:18:36.351Z,95551.16
2022-09-12T07:21:04.071Z,95554.34
2022-09-12T07:23:33.081Z,95554.44
2022-09-12T07:26:01.813Z,95562.44
2022-09-12T07:28:31.594Z,95554.44
2022-09-12T07:31:06.053Z,95551.88
2022-09-12T07:33:33.491Z,95556.00
2022-09-12T07:36:02.074Z,95554.53
2022-09-12T07:38:29.172Z,95559.16
2022-09-12T07:40:57.731Z,95551.97
2022-09-12T07:43:25.231Z,95552.66
2022-09-12T07:45:55.707Z,95556.19
2022-09-12T07:48:23.332Z,95550.72
2022-09-12T07:50:58.952Z,95556.69
2022-09-12T07:53:26.230Z,95549.47
2022-09-12T07:55:54.811Z,95546.88
2022-09-12T07:58:23.513Z,95544.97
2022-09-12T08:00:50.969Z,95544.09
2022-09-12T08:03:18.392Z,95549.63
2022-09-12T08:05:45.452Z,95547.59
2022-09-12T08:08:12.772Z,95543.34
2022-09-12T08:10:39.870Z,95540.09
2022-09-12T08:13:06.960Z,95551.94
2022-09-12T08:15:36.474Z,95550.91
2022-09-12T08:18:03.951Z,95549.34
2022-09-12T08:20:30.991Z,95548.59
2022-09-12T08:22:58.012Z,95560.84
2022-09-12T08:25:25.151Z,95552.63
2022-09-12T08:27:52.229Z,95565.53
2022-09-12T08:30:19.313Z,95558.84
2022-09-12T08:32:47.931Z,95561.47
2022-09-12T08:35:15.052Z,95563.00
2022-09-12T08:37:42.417Z,95561.53
2022-09-12T08:40:16.949Z,95561.56
2022-09-12T08:42:58.850Z,95565.91
2022-09-12T08:45:36.747Z,95568.16
2022-09-12T08:48:09.749Z,95549.47
2022-09-12T08:50:37.484Z,95561.19
2022-09-12T08:53:14.039Z,95560.69
2022-09-12T08:55:44.898Z,95571.31
2022-09-12T08:58:16.482Z,95571.53
2022-09-12T09:00:54.338Z,95576.97
2022-09-12T09:03:51.161Z,95576.78
2022-09-12T09:06:52.599Z,95574.91
2022-09-12T09:09:34.863Z,95573.72
2022-09-12T09:12:17.496Z,95575.50
2022-09-12T09:15:00.948Z,95566.16
2022-09-12T09:17:35.264Z,95569.25
2022-09-12T09:20:17.429Z,95572.41
2022-09-12T09:22:51.003Z,95559.69
2022-09-12T09:25:23.900Z,95563.34
2022-09-12T09:27:58.724Z,95556.97
2022-09-12T09:30:25.920Z,95552.22
2022-09-12T09:32:57.680Z,95551.41
2022-09-12T09:35:38.656Z,95551.31
2022-09-12T09:38:22.605Z,95546.16
2022-09-12T09:41:07.326Z,95546.81
2022-09-12T09:43:34.633Z,95548.88
2022-09-12T09:46:01.920Z,95546.94
2022-09-12T09:48:32.805Z,95552.91
2022-09-12T09:51:04.701Z,95549.06
2022-09-12T09:53:40.207Z,95547.00
2022-09-12T09:56:15.452Z,95551.66
2022-09-12T09:58:42.684Z,95551.47
2022-09-12T10:01:15.966Z,95537.97
2022-09-12T10:03:49.776Z,95543.72
2022-09-12T10:06:30.215Z,95539.47
2022-09-12T10:09:19.575Z,95550.81
2022-09-12T10:11:47.500Z,95534.75
2022-09-12T10:14:34.115Z,95537.38
2022-09-12T10:17:03.256Z,95529.63
2022-09-12T10:19:38.777Z,95531.13
2022-09-12T10:22:18.214Z,95525.03
2022-09-12T10:24:50.652Z,95528.25
2022-09-12T10:27:22.729Z,95521.31
2022-09-12T10:29:54.931Z,95521.13
2022-09-12T10:32:34.110Z,95520.78
2022-09-12T10:35:05.005Z,95523.06
2022-09-12T10:37:37.190Z,95528.00
2022-09-12T10:40:20.646Z,95528.06
2022-09-12T10:42:50.349Z,95524.06
2022-09-12T10:45:27.386Z,95519.94
2022-09-12T10:47:56.729Z,95521.56
2022-09-12T10:50:28.365Z,95530.44
2022-09-12T10:53:15.003Z,95518.50
2022-09-12T10:56:02.060Z,95517.88
2022-09-12T10:59:01.551Z,95513.78
2022-09-12T11:01:39.612Z,95509.03
2022-09-12T11:04:29.409Z,95512.31
2022-09-12T11:07:21.983Z,95505.13
2022-09-12T11:10:01.765Z,95509.91
2022-09-12T11:12:39.484Z,95508.69
2022-09-12T11:15:29.743Z,95499.38
2022-09-12T11:18:11.102Z,95503.50
2022-09-12T11:20:59.823Z,95502.03
2022-09-12T11:23:48.844Z,95503.94
2022-09-12T11:26:32.401Z,95502.47
2022-09-12T11:29:11.754Z,95495.22
2022-09-12T11:32:01.720Z,95493.88
2022-09-12T11:34:44.400Z,95490.22
2022-09-12T11:37:37.639Z,95492.78
2022-09-12T11:40:23.792Z,95487.84
2022-09-12T11:42:59.460Z,95484.16
2022-09-12T11:45:36.481Z,95483.66
2022-09-12T11:48:13.026Z,95479.66
2022-09-12T11:50:40.780Z,95481.31
2022-09-12T11:53:18.760Z,95476.38
2022-09-12T11:55:55.581Z,95472.72
2022-09-12T11:58:28.248Z,95479.78
2022-09-12T12:01:11.580Z,95483.66
2022-09-12T12:03:43.200Z,95478.28
2022-09-12T12:06:16.821Z,95475.00
2022-09-12T12:08:46.394Z,95469.94
2022-09-12T12:11:16.580Z,95468.56
2022-09-12T12:13:52.719Z,95471.81
2022-09-12T12:16:27.162Z,95465.94
2022-09-12T12:18:57.079Z,95473.63
2022-09-12T12:21:38.733Z,95467.75
2022-09-12T12:24:15.782Z,95450.56
2022-09-12T12:26:59.641Z,95457.41
2022-09-12T12:29:44.920Z,95451.06
2022-09-12T12:32:26.221Z,95447.97
2022-09-12T12:35:20.641Z,95444.81
2022-09-12T12:37:57.420Z,95451.91
2022-09-12T12:40:27.703Z,95441.66
2022-09-12T12:42:59.979Z,95437.50
2022-09-12T12:46:04.597Z,95438.22
2022-09-12T12:49:08.119Z,95435.91
2022-09-12T12:52:00.301Z,95434.03
2022-09-12T12:54:50.758Z,95426.81
2022-09-12T12:57:28.840Z,95426.78
2022-09-12T13:00:02.063Z,95430.09
2022-09-12T13:02:35.109Z,95432.72
2022-09-12T13:05:07.279Z,95427.38
2022-09-12T13:07:38.742Z,95423.63
2022-09-12T13:10:08.471Z,95429.25
2022-09-12T13:12:44.459Z,95422.72
2022-09-12T13:15:46.824Z,95420.72
2022-09-12T13:18:24.081Z,95416.41
2022-09-12T13:21:00.400Z,95409.88
2022-09-12T13:23:29.780Z,95408.88
2022-09-12T13:25:59.160Z,95407.94
2022-09-12T13:28:28.422Z,95411.63
2022-09-12T13:31:01.344Z,95409.44
2022-09-12T13:33:36.981Z,95403.50
2022-09-12T13:36:40.222Z,95390.19
2022-09-12T13:39:19.141Z,95398.56
2022-09-12T13:42:30.904Z,95396.78
2022-09-12T13:45:05.361Z,95399.16
2022-09-12T13:47:36.836Z,95393.50
2022-09-12T13:50:13.092Z,95386.84
2022-09-12T13:52:40.887Z,95386.41
2022-09-12T13:55:23.540Z,95385.31
2022-09-12T13:57:58.921Z,95375.78
2022-09-12T14:00:26.182Z,95375.47
2022-09-12T14:02:53.307Z,95366.69
2022-09-12T14:05:25.801Z,95368.88
2022-09-12T14:07:57.260Z,95365.00
2022-09-12T14:10:30.621Z,95358.78
2022-09-12T14:13:01.072Z,95356.00
2022-09-12T14:15:31.424Z,95357.81
2022-09-12T14:18:00.809Z,95361.59
2022-09-12T14:20:31.469Z,95356.13
2022-09-12T14:23:02.519Z,95348.88
2022-09-12T14:25:37.982Z,95354.41
2022-09-12T14:28:06.517Z,95353.13
2022-09-12T14:30:36.520Z,95357.59
2022-09-12T14:33:19.809Z,95345.19
2022-09-12T14:35:52.141Z,95347.56
2022-09-12T14:38:26.102Z,95339.22
2022-09-12T14:41:00.625Z,95342.72
2022-09-12T14:43:30.783Z,95338.94
2022-09-12T14:46:02.170Z,95335.97
2022-09-12T14:48:34.281Z,95336.34
2022-09-12T14:51:05.462Z,95333.97
2022-09-12T14:53:35.442Z,95338.25
2022-09-12T14:56:12.021Z,95335.25
2022-09-12T14:58:41.003Z,95329.41
2022-09-12T15:01:32.039Z,95334.66
2022-09-12T15:03:59.212Z,95331.50
2022-09-12T15:06:31.360Z,95326.44
2022-09-12T15:09:02.651Z,95333.03
2022-09-12T15:11:30.063Z,95328.09
2022-09-12T15:13:57.162Z,95328.38
2022-09-12T15:16:24.294Z,95326.19
2022-09-12T15:18:51.463Z,95327.91
2022-09-12T15:21:21.283Z,95329.47
2022-09-12T15:23:51.462Z,95327.88
2022-09-12T15:26:20.780Z,95322.81
2022-09-12T15:28:48.923Z,95325.72
2022-09-12T15:31:28.255Z,95331.66
2022-09-12T15:33:57.001Z,95329.06
2022-09-12T15:36:25.677Z,95325.88
2022-09-12T15:38:54.723Z,95320.63
2022-09-12T15:41:25.140Z,95324.22
2022-09-12T15:43:52.562Z,95318.16
2022-09-12T15:46:20.498Z,95317.44
2022-09-12T15:48:47.726Z,95305.44
2022-09-12T15:51:17.486Z,95311.41
2022-09-12T15:53:46.437Z,95311.50
2022-09-12T15:56:18.019Z,95309.72
2022-09-12T15:58:57.803Z,95308.72
2022-09-12T16:01:26.251Z,95307.63
2022-09-12T16:03:53.357Z,95310.44
2022-09-12T16:06:20.460Z,95317.97
2022-09-12T16:08:47.582Z,95309.22
2022-09-12T16:11:21.401Z,95309.13
2022-09-12T16:13:48.440Z,95305.13
2022-09-12T16:16:15.633Z,95302.16
2022-09-12T16:18:43.108Z,95293.94
2022-09-12T16:21:14.987Z,95287.25
2022-09-12T16:23:43.220Z,95290.25
2022-09-12T16:26:10.379Z,95292.81
2022-09-12T16:28:39.080Z,95294.63
2022-09-12T16:31:09.305Z,95287.69
2022-09-12T16:33:38.219Z,95291.75
2022-09-12T16:36:07.583Z,95284.09
2022-09-12T16:38:35.199Z,95274.44
2022-09-12T16:41:02.879Z,95278.03
2022-09-12T16:43:31.579Z,95270.38
2022-09-12T16:46:05.114Z,95267.59
2022-09-12T16:48:33.899Z,95268.47
2022-09-12T16:51:03.859Z,95263.03
2022-09-12T16:53:32.023Z,95265.59
2022-09-12T16:55:59.202Z,95256.84
2022-09-12T16:58:27.120Z,95260.84
2022-09-12T17:01:00.362Z,95262.00
2022-09-12T17:03:28.919Z,95268.16
2022-09-12T17:05:59.439Z,95261.19
2022-09-12T17:08:26.599Z,95254.56
2022-09-12T17:10:53.711Z,95256.63
2022-09-12T17:13:20.759Z,95254.94
2022-09-12T17:15:47.885Z,95250.97
2022-09-12T17:18:15.021Z,95256.81
2022-09-12T17:20:43.521Z,95255.25
2022-09-12T17:23:10.639Z,95261.41
2022-09-12T17:25:37.740Z,95258.25
2022-09-12T17:28:05.044Z,95262.81
2022-09-12T17:30:34.720Z,95259.13
2022-09-12T17:33:01.980Z,95256.75
2022-09-12T17:35:29.259Z,95251.19
2022-09-12T17:37:59.339Z,95254.31
2022-09-12T17:40:48.826Z,95260.84
2022-09-12T17:43:14.042Z,95265.53
2022-09-12T17:45:41.840Z,95272.28
2022-09-12T17:48:10.838Z,95274.53
2022-09-12T17:50:39.529Z,95279.03
2022-09-12T17:53:08.359Z,95278.63
2022-09-12T17:55:35.799Z,95274.56
2022-09-12T17:58:03.680Z,95263.72
2022-09-12T18:00:31.780Z,95268.97
2022-09-12T18:02:58.892Z,95271.84
2022-09-12T18:05:25.960Z,95267.16
2022-09-12T18:07:53.020Z,95270.50
2022-09-12T18:10:21.579Z,95261.28
2022-09-12T18:12:48.640Z,95262.94
2022-09-12T18:15:15.919Z,95262.72
2022-09-12T18:17:43.018Z,95269.25
2022-09-12T18:20:10.199Z,95273.88
2022-09-12T18:22:37.281Z,95274.16
2022-09-12T18:25:04.939Z,95278.22
2022-09-12T18:27:33.500Z,95286.25
2022-09-12T18:30:19.965Z,95291.81
2022-09-12T18:32:48.120Z,95295.91
2022-09-12T18:35:15.400Z,95287.56
2022-09-12T18:37:43.019Z,95288.59
2022-09-12T18:40:11.269Z,95290.97
2022-09-12T18:42:39.859Z,95294.97
2022-09-12T18:45:08.418Z,95297.97
2022-09-12T18:47:35.501Z,95302.31
2022-09-12T18:50:02.619Z,95297.63
2022-09-12T18:52:29.690Z,95305.50
2022-09-12T18:54:56.899Z,95309.38
2022-09-12T18:57:25.339Z,95310.53
2022-09-12T18:59:53.802Z,95307.72
2022-09-12T19:02:20.839Z,95311.84
2022-09-12T19:04:47.900Z,95311.44
2022-09-12T19:07:14.919Z,95309.91
2022-09-12T19:09:41.964Z,95316.41
2022-09-12T19:12:09.060Z,95315.41
2022-09-12T19:14:36.180Z,95315.41
2022-09-12T19:17:04.959Z,95313.78
2022-09-12T19:19:32.019Z,95306.13
2022-09-12T19:21:59.178Z,95312.34
2022-09-12T19:24:26.339Z,95312.69
2022-09-12T19:26:53.439Z,95310.00
2022-09-12T19:29:20.760Z,95311.88
2022-09-12T19:31:47.881Z,95324.97
2022-09-12T19:34:16.520Z,95323.16
2022-09-12T19:36:46.232Z,95322.41
2022-09-12T19:39:16.570Z,95323.72
2022-09-12T19:41:44.020Z,95318.66
2022-09-12T19:44:11.140Z,95316.78
2022-09-12T19:46:38.404Z,95317.28
2022-09-12T19:49:05.812Z,95311.16
2022-09-12T19:51:35.200Z,95309.81
2022-09-12T19:54:02.519Z,95317.59
2022-09-12T19:56:29.600Z,95315.41
2022-09-12T19:58:57.038Z,95318.72
2022-09-12T20:01:26.926Z,95320.09
2022-09-12T20:03:54.298Z,95320.66
2022-09-12T20:06:22.218Z,95327.91
2022-09-12T20:08:50.819Z,95327.91
2022-09-12T20:11:19.960Z,95333.00
2022-09-12T20:13:47.924Z,95335.50
2022-09-12T20:16:21.260Z,95337.66
2022-09-12T20:18:54.323Z,95333.19
2022-09-12T20:21:24.599Z,95337.25
2022-09-12T20:23:53.103Z,95339.69
2022-09-12T20:26:20.306Z,95342.41
2022-09-12T20:28:47.875Z,95343.22
2022-09-12T20:31:16.937Z,95338.66
2022-09-12T20:33:47.544Z,95337.63
2022-09-12T20:36:19.247Z,95331.50
2022-09-12T20:38:48.737Z,95328.06
2022-09-12T20:41:18.381Z,95323.84
2022-09-12T20:43:45.472Z,95325.22
2022-09-12T20:46:12.636Z,95321.53
2022-09-12T20:48:39.986Z,95310.91
2022-09-12T20:51:07.559Z,95318.09
2022-09-12T20:53:35.576Z,95313.56
2022-09-12T20:56:04.084Z,95320.03
2022-09-12T20:58:33.705Z,95314.97
2022-09-12T21:01:06.988Z,95312.00
2022-09-12T21:03:37.345Z,95309.94
2022-09-12T21:06:04.786Z,95317.44
2022-09-12T21:08:32.165Z,95318.78
2022-09-12T21:11:00.500Z,95323.56
2022-09-12T21:13:27.828Z,95324.34
2022-09-12T21:15:59.846Z,95320.91
2022-09-12T21:18:27.345Z,95320.94
2022-09-12T21:20:55.747Z,95326.84
2022-09-12T21:23:24.844Z,95321.81
2022-09-12T21:25:52.834Z,95335.44
2022-09-12T21:28:20.289Z,95326.66
2022-09-12T21:30:48.433Z,95324.78
2022-09-12T21:33:18.625Z,95323.75
2022-09-12T21:35:46.324Z,95316.56
2022-09-12T21:38:13.485Z,95324.56
2022-09-12T21:40:40.544Z,95322.16
2022-09-12T21:43:12.334Z,95317.34
2022-09-12T21:45:39.960Z,95315.50
2022-09-12T21:48:07.363Z,95322.19
2022-09-12T21:50:35.824Z,95314.22
2022-09-12T21:53:03.047Z,95318.47
2022-09-12T21:55:30.128Z,95321.66
2022-09-12T21:57:57.139Z,95329.66
2022-09-12T22:00:24.204Z,95321.13
2022-09-12T22:02:51.370Z,95323.63
2022-09-12T22:05:18.443Z,95328.44
2022-09-12T22:07:46.984Z,95332.38
2022-09-12T22:10:14.285Z,95334.81
2022-09-12T22:12:45.944Z,95326.78
2022-09-12T22:15:39.076Z,95330.28
2022-09-12T22:18:01.105Z,95329.22
2022-09-12T22:20:28.205Z,95317.78
2022-09-12T22:22:56.726Z,95329.28
2022-09-12T22:25:24.085Z,95317.88
2022-09-12T22:27:51.186Z,95316.78
2022-09-12T22:30:19.691Z,95310.44
2022-09-12T22:32:47.084Z,95306.44
2022-09-12T22:35:14.405Z,95303.78
2022-09-12T22:37:41.646Z,95305.69
2022-09-12T22:40:11.745Z,95311.56
2022-09-12T22:42:38.889Z,95308.94
2022-09-12T22:45:07.966Z,95307.63
2022-09-12T22:47:35.087Z,95300.94
2022-09-12T22:50:02.216Z,95304.69
2022-09-12T22:52:29.265Z,95298.03
2022-09-12T22:54:56.285Z,95296.44
2022-09-12T22:57:24.824Z,95310.56
2022-09-12T22:59:51.925Z,95304.19
2022-09-12T23:02:18.905Z,95304.47
2022-09-12T23:04:45.947Z,95307.88
2022-09-12T23:07:13.166Z,95299.72
2022-09-12T23:09:40.206Z,95299.75
2022-09-12T23:12:07.527Z,95296.84
2022-09-12T23:14:35.966Z,95297.09
2022-09-12T23:17:03.657Z,95290.91
2022-09-12T23:19:30.784Z,95300.19
2022-09-12T23:21:57.873Z,95297.47
2022-09-12T23:24:25.045Z,95299.31
2022-09-12T23:26:52.188Z,95301.97
2022-09-12T23:29:19.306Z,95300.72
2022-09-12T23:31:47.895Z,95309.91
2022-09-12T23:34:14.984Z,95307.66
2022-09-12T23:36:42.065Z,95315.59
2022-09-12T23:39:09.850Z,95324.06
2022-09-12T23:41:36.926Z,95320.50
2022-09-12T23:44:04.265Z,95321.50
2022-09-12T23:46:31.464Z,95324.94
2022-09-12T23:49:00.425Z,95325.66
2022-09-12T23:51:27.524Z,95320.81
2022-09-12T23:53:54.665Z,95318.91
2022-09-12T23:56:21.765Z,95316.72
2022-09-12T23:58:48.991Z,95320.50
